Primrose Ace — D5DQ7 — position and weather

sailwx.info

Track history (hours):
 
Tides and Currents Weather Stations Pressure Air Temp Water Temp Dewpoint Dewpoint Depression Visibility Wind Speed Wind Dir Waves Ship Positions

Primrose Ace

Last reported at 2017-Nov-07 05:39 UTC. Time now 2017-Nov-18 08:48 UTC.
Position S 30°23' E 030°55'.
Warning: this ship's position is 11 days out of date.

Length 200 m; draft 8.3 m.

Type: Cargo ship. MMSI: 636015949.

Date/timePositionNaut miles runAvg speedWind from/ knotsBaromVisibWave heightAir tempDewpointWater temp
2017-Nov-07 05:39S 30°23' E 030°55'212.1
2017-Nov-07 05:30S 30°22' E 030°56'611.3
2017-Nov-07 05:00S 30°17' E 030°60'510.8
2017-Nov-07 04:30S 30°12' E 031°03'510.4
2017-Nov-07 04:00S 30°08' E 031°06'611.0
2017-Nov-07 03:30S 30°03' E 031°09'611.3
2017-Nov-07 03:00S 29°58' E 031°11'612.1
2017-Nov-07 02:31S 29°52' E 031°09'5 9.6
2017-Nov-07 02:00S 29°52' E 031°03'1 2.5
2017-Nov-07 01:30S 29°52' E 031°02'0 0.1
2017-Nov-07 00:58S 29°52' E 031°02'0 0.0
2017-Nov-07 00:28S 29°52' E 031°02'0 0.0
2017-Nov-06 23:58S 29°52' E 031°02'0 0.0
2017-Nov-06 23:28S 29°52' E 031°02'0 0.0
2017-Nov-06 22:58S 29°52' E 031°02'0 0.0
2017-Nov-06 22:28S 29°52' E 031°02'0 0.0
2017-Nov-06 21:58S 29°52' E 031°02'0 0.0
2017-Nov-06 21:28S 29°52' E 031°02'0 0.0
2017-Nov-06 20:58S 29°52' E 031°02'0 0.0
2017-Nov-06 20:28S 29°52' E 031°02'0 0.0
2017-Nov-06 02:28S 29°52' E 031°02'0 0.0
2017-Nov-06 01:58S 29°52' E 031°02'0 0.0
2017-Nov-06 01:28S 29°52' E 031°02'0 0.0
2017-Nov-06 00:58S 29°52' E 031°02'0 0.0
2017-Nov-06 00:28S 29°52' E 031°02'0 0.0
2017-Nov-05 23:58S 29°52' E 031°02'0 0.0
2017-Nov-05 23:28S 29°52' E 031°02'0 0.0
2017-Nov-05 22:58S 29°52' E 031°02'0 0.0
2017-Nov-05 22:28S 29°52' E 031°02'0 0.0
2017-Nov-05 21:58S 29°52' E 031°02'1 1.6
2017-Nov-05 21:31S 29°52' E 031°02'3 6.8
2017-Nov-05 21:00S 29°50' E 031°05'3 6.3
2017-Nov-05 20:31S 29°52' E 031°09'510.4
2017-Nov-05 20:00S 29°56' E 031°12'612.1
2017-Nov-05 19:30S 30°02' E 031°15'611.8
2017-Nov-05 19:01S 30°07' E 031°18'611.6
2017-Nov-05 18:30S 30°12' E 031°22'611.0
2017-Nov-05 18:00S 30°16' E 031°26'3 6.6
2017-Nov-05 17:30S 30°18' E 031°29'1 2.2
2017-Nov-05 16:58S 30°18' E 031°30'1 2.2
2017-Nov-05 16:29S 30°17' E 031°31'1 2.1
2017-Nov-05 16:00S 30°16' E 031°32'1 2.3
2017-Nov-05 15:30S 30°15' E 031°32'2 3.0
2017-Nov-05 15:00S 30°14' E 031°34'1 2.2
2017-Nov-05 14:30S 30°14' E 031°35'1 2.5
2017-Nov-05 14:00S 30°12' E 031°35'2 3.0
2017-Nov-05 13:30S 30°11' E 031°36'1 2.9
2017-Nov-05 13:00S 30°10' E 031°36'2 3.2
2017-Nov-05 12:30S 30°08' E 031°37'2 3.3
2017-Nov-05 12:01S 30°07' E 031°38'4 7.9
2017-Nov-05 11:30S 30°04' E 031°35'5 9.7
2017-Nov-05 11:00S 29°60' E 031°31'3 6.6
2017-Nov-05 10:31S 29°57' E 031°31'2 3.9
2017-Nov-05 10:01S 29°55' E 031°33'2 3.7
2017-Nov-05 09:30S 29°54' E 031°35'2 4.0
2017-Nov-05 09:00S 29°53' E 031°36'2 4.1
2017-Nov-05 08:30S 29°51' E 031°38'2 4.0
2017-Nov-05 08:00S 29°50' E 031°39'2 3.5
2017-Nov-05 07:30S 29°48' E 031°40'3 6.5
2017-Nov-05 07:00S 29°47' E 031°36'710.6
2017-Nov-05 06:21S 29°47' E 031°28'411.1
2017-Nov-05 06:00S 29°47' E 031°24'0 0.1
2017-Nov-05 05:30S 29°47' E 031°24'1 1.5
2017-Nov-05 05:01S 29°47' E 031°25'1 1.6
2017-Nov-05 04:31S 29°48' E 031°25'1 1.5
2017-Nov-05 04:01S 29°48' E 031°26'1 1.5
2017-Nov-05 03:31S 29°48' E 031°27'1 1.2
2017-Nov-05 03:00S 29°48' E 031°28'0 0.8
2017-Nov-05 02:31S 29°48' E 031°28'0 0.9
2017-Nov-05 02:00S 29°48' E 031°29'0 0.9
2017-Nov-05 01:30S 29°48' E 031°29'4 7.3
2017-Nov-05 01:00S 29°49' E 031°25'713.3
2017-Nov-05 00:31S 29°52' E 031°18'612.4
2017-Nov-05 00:01S 29°54' E 031°11'714.4
2017-Nov-04 23:31S 30°01' E 031°11'714.6
2017-Nov-04 23:01S 30°08' E 031°06'713.7
2017-Nov-04 22:31S 30°13' E 031°02'713.3
2017-Nov-04 22:01S 30°19' E 030°58'613.0
2017-Nov-04 21:31S 30°25' E 030°54'611.9
2017-Nov-04 21:01S 30°30' E 030°51'  
2017-Nov-02 05:08S 33°44' E 017°04'214.1
2017-Nov-02 05:00S 33°43' E 017°02'  
Track history (hours):
 
Tides and Currents Weather Stations Pressure Air Temp Water Temp Dewpoint Dewpoint Depression Visibility Wind Speed Wind Dir Waves Ship Positions

Primrose Ace

Last reported at 2017-Nov-07 05:39 UTC. Time now 2017-Nov-18 08:48 UTC.
Position S 30°23' E 030°55'.
Warning: this ship's position is 11 days out of date.

Length 200 m; draft 8.3 m.

Type: Cargo ship. MMSI: 636015949.

Date/timePositionNaut miles runAvg speedWind from/ knotsBaromVisibWave heightAir tempDewpointWater temp
2017-Nov-07 05:39S 30°23' E 030°55'212.1
2017-Nov-07 05:30S 30°22' E 030°56'611.3
2017-Nov-07 05:00S 30°17' E 030°60'510.8
2017-Nov-07 04:30S 30°12' E 031°03'510.4
2017-Nov-07 04:00S 30°08' E 031°06'611.0
2017-Nov-07 03:30S 30°03' E 031°09'611.3
2017-Nov-07 03:00S 29°58' E 031°11'612.1
2017-Nov-07 02:31S 29°52' E 031°09'5 9.6
2017-Nov-07 02:00S 29°52' E 031°03'1 2.5
2017-Nov-07 01:30S 29°52' E 031°02'0 0.1
2017-Nov-07 00:58S 29°52' E 031°02'0 0.0
2017-Nov-07 00:28S 29°52' E 031°02'0 0.0
2017-Nov-06 23:58S 29°52' E 031°02'0 0.0
2017-Nov-06 23:28S 29°52' E 031°02'0 0.0
2017-Nov-06 22:58S 29°52' E 031°02'0 0.0
2017-Nov-06 22:28S 29°52' E 031°02'0 0.0
2017-Nov-06 21:58S 29°52' E 031°02'0 0.0
2017-Nov-06 21:28S 29°52' E 031°02'0 0.0
2017-Nov-06 20:58S 29°52' E 031°02'0 0.0
2017-Nov-06 20:28S 29°52' E 031°02'0 0.0
2017-Nov-06 02:28S 29°52' E 031°02'0 0.0
2017-Nov-06 01:58S 29°52' E 031°02'0 0.0
2017-Nov-06 01:28S 29°52' E 031°02'0 0.0
2017-Nov-06 00:58S 29°52' E 031°02'0 0.0
2017-Nov-06 00:28S 29°52' E 031°02'0 0.0
2017-Nov-05 23:58S 29°52' E 031°02'0 0.0
2017-Nov-05 23:28S 29°52' E 031°02'0 0.0
2017-Nov-05 22:58S 29°52' E 031°02'0 0.0
2017-Nov-05 22:28S 29°52' E 031°02'0 0.0
2017-Nov-05 21:58S 29°52' E 031°02'1 1.6
2017-Nov-05 21:31S 29°52' E 031°02'3 6.8
2017-Nov-05 21:00S 29°50' E 031°05'3 6.3
2017-Nov-05 20:31S 29°52' E 031°09'510.4
2017-Nov-05 20:00S 29°56' E 031°12'612.1
2017-Nov-05 19:30S 30°02' E 031°15'611.8
2017-Nov-05 19:01S 30°07' E 031°18'611.6
2017-Nov-05 18:30S 30°12' E 031°22'611.0
2017-Nov-05 18:00S 30°16' E 031°26'3 6.6
2017-Nov-05 17:30S 30°18' E 031°29'1 2.2
2017-Nov-05 16:58S 30°18' E 031°30'1 2.2
2017-Nov-05 16:29S 30°17' E 031°31'1 2.1
2017-Nov-05 16:00S 30°16' E 031°32'1 2.3
2017-Nov-05 15:30S 30°15' E 031°32'2 3.0
2017-Nov-05 15:00S 30°14' E 031°34'1 2.2
2017-Nov-05 14:30S 30°14' E 031°35'1 2.5
2017-Nov-05 14:00S 30°12' E 031°35'2 3.0
2017-Nov-05 13:30S 30°11' E 031°36'1 2.9
2017-Nov-05 13:00S 30°10' E 031°36'2 3.2
2017-Nov-05 12:30S 30°08' E 031°37'2 3.3
2017-Nov-05 12:01S 30°07' E 031°38'4 7.9
2017-Nov-05 11:30S 30°04' E 031°35'5 9.7
2017-Nov-05 11:00S 29°60' E 031°31'3 6.6
2017-Nov-05 10:31S 29°57' E 031°31'2 3.9
2017-Nov-05 10:01S 29°55' E 031°33'2 3.7
2017-Nov-05 09:30S 29°54' E 031°35'2 4.0
2017-Nov-05 09:00S 29°53' E 031°36'2 4.1
2017-Nov-05 08:30S 29°51' E 031°38'2 4.0
2017-Nov-05 08:00S 29°50' E 031°39'2 3.5
2017-Nov-05 07:30S 29°48' E 031°40'3 6.5
2017-Nov-05 07:00S 29°47' E 031°36'710.6
2017-Nov-05 06:21S 29°47' E 031°28'411.1
2017-Nov-05 06:00S 29°47' E 031°24'0 0.1
2017-Nov-05 05:30S 29°47' E 031°24'1 1.5
2017-Nov-05 05:01S 29°47' E 031°25'1 1.6
2017-Nov-05 04:31S 29°48' E 031°25'1 1.5
2017-Nov-05 04:01S 29°48' E 031°26'1 1.5
2017-Nov-05 03:31S 29°48' E 031°27'1 1.2
2017-Nov-05 03:00S 29°48' E 031°28'0 0.8
2017-Nov-05 02:31S 29°48' E 031°28'0 0.9
2017-Nov-05 02:00S 29°48' E 031°29'0 0.9
2017-Nov-05 01:30S 29°48' E 031°29'4 7.3
2017-Nov-05 01:00S 29°49' E 031°25'713.3
2017-Nov-05 00:31S 29°52' E 031°18'612.4
2017-Nov-05 00:01S 29°54' E 031°11'714.4
2017-Nov-04 23:31S 30°01' E 031°11'714.6
2017-Nov-04 23:01S 30°08' E 031°06'713.7
2017-Nov-04 22:31S 30°13' E 031°02'713.3
2017-Nov-04 22:01S 30°19' E 030°58'613.0
2017-Nov-04 21:31S 30°25' E 030°54'611.9
2017-Nov-04 21:01S 30°30' E 030°51'  
2017-Nov-02 05:08S 33°44' E 017°04'214.1
2017-Nov-02 05:00S 33°43' E 017°02'  

Dump ship's entire track history